Culver, Indiana
Current Conditions -  °F | °C
As of 11:55 AM on Thursday 30 Oct 2014 (Local Time) from KOXI Reporting Station
Clear Clear  
Wind Chill: 45°   Ceiling: Unl
Heat Index: 48°   Visibility: 10mi
Dew Point: 32°   Wind: 6mph
Humidity: 55%   Direction: 260°W
Pressure: 30.14"   Gusts: NA
Location:  41.22°N, 86.42°W
Report Text: KOXI 301555Z AUTO 26005KT 10SM CLR 09/00 A3014 RMK AO1 T00870001
Loading
Personal Weather Stations






























Interactive Weather Map
Tropical Storm Tracking
New forecast layout! Learn more

10-Day Weather Forecast

Advertisements
Track Severe Weather on mobile